createdAt,value
2023-02-14T00:00:23.995Z,4.90
2023-02-14T00:03:11.707Z,4.90
2023-02-14T00:05:59.049Z,4.90
2023-02-14T00:08:46.677Z,4.90
2023-02-14T00:11:34.592Z,4.90
2023-02-14T00:14:39.186Z,4.90
2023-02-14T00:17:28.185Z,4.90
2023-02-14T00:20:15.820Z,4.90
2023-02-14T00:23:03.681Z,4.90
2023-02-14T00:25:50.948Z,4.90
2023-02-14T00:28:38.179Z,4.90
2023-02-14T00:31:25.862Z,4.80
2023-02-14T00:34:16.648Z,4.90
2023-02-14T00:37:04.771Z,4.90
2023-02-14T00:39:52.641Z,4.90
2023-02-14T00:42:39.948Z,4.80
2023-02-14T00:45:27.371Z,4.80
2023-02-14T00:48:15.011Z,4.80
2023-02-14T00:51:03.756Z,4.80
2023-02-14T00:53:52.363Z,4.80
2023-02-14T00:56:40.227Z,4.80
2023-02-14T00:59:30.147Z,4.80
2023-02-14T01:02:17.652Z,4.80
2023-02-14T01:05:05.111Z,4.80
2023-02-14T01:07:53.849Z,4.80
2023-02-14T01:10:42.044Z,4.70
2023-02-14T01:13:29.702Z,4.70
2023-02-14T01:16:18.908Z,4.70
2023-02-14T01:19:06.658Z,4.70
2023-02-14T01:21:54.390Z,4.70
2023-02-14T01:24:45.017Z,4.70
2023-02-14T01:27:32.676Z,4.70
2023-02-14T01:30:20.657Z,4.70
2023-02-14T01:33:07.962Z,4.70
2023-02-14T01:35:56.016Z,4.70
2023-02-14T01:38:43.799Z,4.70
2023-02-14T01:41:36.054Z,4.70
2023-02-14T01:44:58.939Z,4.70
2023-02-14T01:47:50.892Z,4.70
2023-02-14T01:50:40.714Z,4.70
2023-02-14T01:53:30.702Z,4.70
2023-02-14T01:56:22.931Z,4.70
2023-02-14T01:59:17.882Z,4.70
2023-02-14T02:02:06.701Z,4.70
2023-02-14T02:04:56.949Z,4.70
2023-02-14T02:07:46.404Z,4.60
2023-02-14T02:10:34.024Z,4.60
2023-02-14T02:13:23.281Z,4.60
2023-02-14T02:16:30.283Z,4.60
2023-02-14T02:20:02.313Z,4.60
2023-02-14T02:23:17.949Z,4.60
2023-02-14T02:26:35.961Z,4.60
2023-02-14T02:30:08.074Z,4.60
2023-02-14T02:33:40.965Z,4.50
2023-02-14T02:36:49.257Z,4.50
2023-02-14T02:39:47.493Z,4.50
2023-02-14T02:42:47.327Z,4.50
2023-02-14T02:46:03.743Z,4.50
2023-02-14T02:49:00.679Z,4.50
2023-02-14T02:52:19.033Z,4.50
2023-02-14T02:55:13.868Z,4.60
2023-02-14T02:58:01.065Z,4.60
2023-02-14T03:00:51.801Z,4.50
2023-02-14T03:04:07.097Z,4.50
2023-02-14T03:06:56.692Z,4.50
2023-02-14T03:09:54.053Z,4.50
2023-02-14T03:13:15.459Z,4.50
2023-02-14T03:16:24.752Z,4.50
2023-02-14T03:19:53.245Z,4.50
2023-02-14T03:22:51.606Z,4.50
2023-02-14T03:25:45.266Z,4.50
2023-02-14T03:28:43.920Z,4.50
2023-02-14T03:31:35.987Z,4.50
2023-02-14T03:34:32.275Z,4.50
2023-02-14T03:37:25.281Z,4.50
2023-02-14T03:40:21.082Z,4.50
2023-02-14T03:43:11.989Z,4.50
2023-02-14T03:46:07.049Z,4.50
2023-02-14T03:48:57.444Z,4.50
2023-02-14T03:51:49.223Z,4.50
2023-02-14T03:54:37.927Z,4.50
2023-02-14T03:57:31.589Z,4.50
2023-02-14T04:00:20.249Z,4.50
2023-02-14T04:03:13.023Z,4.40
2023-02-14T04:06:01.215Z,4.50
2023-02-14T04:08:48.527Z,4.40
2023-02-14T04:11:36.093Z,4.40
2023-02-14T04:14:29.495Z,4.40
2023-02-14T04:17:39.719Z,4.40
2023-02-14T04:20:27.804Z,4.40
2023-02-14T04:23:15.182Z,4.40
2023-02-14T04:26:03.779Z,4.40
2023-02-14T04:28:51.238Z,4.40
2023-02-14T04:31:40.159Z,4.40
2023-02-14T04:34:27.577Z,4.40
2023-02-14T04:37:16.774Z,4.30
2023-02-14T04:40:04.101Z,4.30
2023-02-14T04:42:51.838Z,4.30
2023-02-14T04:45:39.320Z,4.30
2023-02-14T04:48:28.288Z,4.30
2023-02-14T04:51:15.747Z,4.30
2023-02-14T04:54:03.140Z,4.30
2023-02-14T04:56:50.744Z,4.30
2023-02-14T04:59:38.406Z,4.30
2023-02-14T05:02:26.687Z,4.30
2023-02-14T05:05:15.708Z,4.30
2023-02-14T05:08:03.360Z,4.30
2023-02-14T05:10:50.845Z,4.30
2023-02-14T05:13:38.343Z,4.30
2023-02-14T05:16:26.385Z,4.30
2023-02-14T05:19:14.377Z,4.30
2023-02-14T05:22:03.316Z,4.30
2023-02-14T05:24:50.711Z,4.30
2023-02-14T05:27:38.259Z,4.30
2023-02-14T05:30:28.137Z,4.30
2023-02-14T05:33:15.573Z,4.30
2023-02-14T05:36:03.787Z,4.30
2023-02-14T05:38:52.976Z,4.30
2023-02-14T05:41:40.898Z,4.30
2023-02-14T05:44:28.347Z,4.30
2023-02-14T05:47:16.081Z,4.30
2023-02-14T05:50:03.706Z,4.30
2023-02-14T05:52:51.405Z,4.30
2023-02-14T05:55:40.235Z,4.30
2023-02-14T05:58:28.052Z,4.30
2023-02-14T06:01:15.855Z,4.30
2023-02-14T06:04:03.455Z,4.30
2023-02-14T06:06:50.888Z,4.30
2023-02-14T06:09:38.587Z,4.30
2023-02-14T06:12:27.556Z,4.30
2023-02-14T06:15:15.644Z,4.20
2023-02-14T06:18:03.024Z,4.20
2023-02-14T06:20:53.095Z,4.30
2023-02-14T06:23:40.587Z,4.30
2023-02-14T06:26:28.968Z,4.30
2023-02-14T06:29:18.226Z,4.30
2023-02-14T06:32:07.080Z,4.30
2023-02-14T06:34:54.815Z,4.40
2023-02-14T06:37:42.433Z,4.40
2023-02-14T06:40:30.075Z,4.40
2023-02-14T06:43:18.029Z,4.40
2023-02-14T06:46:07.264Z,4.40
2023-02-14T06:48:54.667Z,4.40
2023-02-14T06:51:42.491Z,4.40
2023-02-14T06:54:29.915Z,4.50
2023-02-14T06:57:17.294Z,4.50
2023-02-14T07:00:05.532Z,4.50
2023-02-14T07:02:54.489Z,4.50
2023-02-14T07:05:41.922Z,4.50
2023-02-14T07:08:29.799Z,4.50
2023-02-14T07:11:17.830Z,4.50
2023-02-14T07:14:05.311Z,4.50
2023-02-14T07:16:52.716Z,4.60
2023-02-14T07:19:41.487Z,4.60
2023-02-14T07:22:30.356Z,4.60
2023-02-14T07:25:18.120Z,4.60
2023-02-14T07:28:05.663Z,4.70
2023-02-14T07:30:53.256Z,4.70
2023-02-14T07:33:40.986Z,4.80
2023-02-14T07:36:30.234Z,4.80
2023-02-14T07:39:17.833Z,4.80
2023-02-14T07:42:05.499Z,4.90
2023-02-14T07:44:53.356Z,4.90
2023-02-14T07:47:41.021Z,4.90
2023-02-14T07:50:28.969Z,4.90
2023-02-14T07:53:18.079Z,4.90
2023-02-14T07:56:05.822Z,5.00
2023-02-14T07:58:53.129Z,5.00
2023-02-14T08:01:40.768Z,5.00
2023-02-14T08:04:28.508Z,5.10
2023-02-14T08:07:16.053Z,5.20
2023-02-14T08:10:05.058Z,5.20
2023-02-14T08:13:01.681Z,5.20
2023-02-14T08:16:09.654Z,5.20
2023-02-14T08:18:57.277Z,5.30
2023-02-14T08:21:44.734Z,5.30
2023-02-14T08:24:32.696Z,5.30
2023-02-14T08:27:21.842Z,5.40
2023-02-14T08:30:10.320Z,5.40
2023-02-14T08:32:57.787Z,5.40
2023-02-14T08:35:45.417Z,5.40
2023-02-14T08:38:33.340Z,5.50
2023-02-14T08:41:21.154Z,5.60
2023-02-14T08:44:10.057Z,5.60
2023-02-14T08:46:57.695Z,5.60
2023-02-14T08:49:45.224Z,5.70
2023-02-14T08:52:33.331Z,5.70
2023-02-14T08:55:20.793Z,5.80
2023-02-14T08:58:09.162Z,5.80
2023-02-14T09:00:58.771Z,5.80
2023-02-14T09:03:46.587Z,5.80
2023-02-14T09:06:34.355Z,5.90
2023-02-14T09:09:21.995Z,6.00
2023-02-14T09:12:10.843Z,6.00
2023-02-14T09:14:58.415Z,6.00
2023-02-14T09:17:47.656Z,6.10
2023-02-14T09:20:35.217Z,6.10
2023-02-14T09:23:22.692Z,6.10
2023-02-14T09:26:12.978Z,6.10
2023-02-14T09:29:00.389Z,6.10
2023-02-14T09:31:47.839Z,6.20
2023-02-14T09:34:36.944Z,6.20
2023-02-14T09:37:42.128Z,6.20
2023-02-14T09:40:29.694Z,6.30
2023-02-14T09:43:24.855Z,6.30
2023-02-14T09:46:15.922Z,6.30
2023-02-14T09:49:04.215Z,6.30
2023-02-14T09:51:55.453Z,6.40
2023-02-14T09:54:45.442Z,6.40
2023-02-14T09:57:45.129Z,6.50
2023-02-14T10:00:37.937Z,6.50
2023-02-14T10:03:51.196Z,6.60
2023-02-14T10:06:49.280Z,6.60
2023-02-14T10:10:00.266Z,6.60
2023-02-14T10:12:54.322Z,6.70
2023-02-14T10:15:46.085Z,6.80
2023-02-14T10:18:41.813Z,6.80
2023-02-14T10:21:34.987Z,6.80
2023-02-14T10:24:26.672Z,6.80
2023-02-14T10:27:27.581Z,6.90
2023-02-14T10:30:16.945Z,6.90
2023-02-14T10:33:13.151Z,6.90
2023-02-14T10:36:05.652Z,6.90
2023-02-14T10:39:02.805Z,7.00
2023-02-14T10:41:54.262Z,7.00
2023-02-14T10:44:51.546Z,7.00
2023-02-14T10:47:47.771Z,7.10
2023-02-14T10:50:40.712Z,7.20
2023-02-14T10:53:35.632Z,7.20
2023-02-14T10:56:27.155Z,7.20
2023-02-14T10:59:23.460Z,7.20
2023-02-14T11:02:16.491Z,7.30
2023-02-14T11:05:05.809Z,7.30
2023-02-14T11:07:53.227Z,7.40
2023-02-14T11:10:42.174Z,7.40
2023-02-14T11:13:32.974Z,7.40
2023-02-14T11:16:31.301Z,7.50
2023-02-14T11:19:27.039Z,7.50
2023-02-14T11:22:31.076Z,7.50
2023-02-14T11:25:21.945Z,7.50
2023-02-14T11:28:17.035Z,7.60
2023-02-14T11:31:05.945Z,7.60
2023-02-14T11:33:54.387Z,7.70
2023-02-14T11:36:43.683Z,7.70
2023-02-14T11:39:33.468Z,7.60
2023-02-14T11:42:36.913Z,7.60
2023-02-14T11:45:30.103Z,7.60
2023-02-14T11:48:34.928Z,7.60
2023-02-14T11:51:30.015Z,7.60
2023-02-14T11:54:33.297Z,7.50
2023-02-14T11:57:26.238Z,7.50
2023-02-14T12:00:17.204Z,7.50
2023-02-14T12:03:08.359Z,7.50
2023-02-14T12:06:00.571Z,7.60
2023-02-14T12:08:47.981Z,7.60
2023-02-14T12:11:36.892Z,7.60
2023-02-14T12:14:26.257Z,7.60
2023-02-14T12:17:26.466Z,7.50
2023-02-14T12:20:18.666Z,7.40
2023-02-14T12:23:11.667Z,7.40
2023-02-14T12:26:04.441Z,7.50
2023-02-14T12:28:59.333Z,7.50
2023-02-14T12:31:48.591Z,7.60
2023-02-14T12:34:37.453Z,7.60
2023-02-14T12:37:38.847Z,7.60
2023-02-14T12:40:33.153Z,7.60
2023-02-14T12:43:43.675Z,7.60
2023-02-14T12:46:45.832Z,7.60
2023-02-14T12:50:01.594Z,7.50
2023-02-14T12:53:05.732Z,7.50
2023-02-14T12:56:01.187Z,7.50
2023-02-14T12:58:58.454Z,7.50
2023-02-14T13:02:32.429Z,7.50
2023-02-14T13:05:25.133Z,7.50
2023-02-14T13:08:25.153Z,7.50
2023-02-14T13:11:22.684Z,7.50
2023-02-14T13:14:22.664Z,7.50
2023-02-14T13:17:20.434Z,7.50
2023-02-14T13:20:30.952Z,7.50
2023-02-14T13:23:23.599Z,7.40
2023-02-14T13:26:15.526Z,7.40
2023-02-14T13:29:05.707Z,7.30
2023-02-14T13:31:58.596Z,7.40
2023-02-14T13:34:49.341Z,7.40
2023-02-14T13:37:38.253Z,7.30
2023-02-14T13:40:28.422Z,7.30
2023-02-14T13:44:03.151Z,7.30
2023-02-14T13:46:53.323Z,7.40
2023-02-14T13:49:47.707Z,7.30
2023-02-14T13:52:46.747Z,7.20
2023-02-14T13:55:37.363Z,7.20
2023-02-14T13:58:25.925Z,7.20
2023-02-14T14:01:41.916Z,7.20
2023-02-14T14:04:39.071Z,7.10
2023-02-14T14:07:30.833Z,7.10
2023-02-14T14:10:45.897Z,7.00
2023-02-14T14:13:55.528Z,7.00
2023-02-14T14:16:58.663Z,7.00
2023-02-14T14:19:47.981Z,7.00
2023-02-14T14:22:48.358Z,7.00
2023-02-14T14:25:39.904Z,7.00
2023-02-14T14:28:29.675Z,6.90
2023-02-14T14:31:21.234Z,6.90
2023-02-14T14:34:08.616Z,6.90
2023-02-14T14:37:05.012Z,6.90
2023-02-14T14:39:54.157Z,6.90
2023-02-14T14:42:42.231Z,6.80
2023-02-14T14:45:31.713Z,6.80
2023-02-14T14:48:24.474Z,6.70
2023-02-14T14:51:23.489Z,6.70
2023-02-14T14:54:19.057Z,6.60
2023-02-14T14:57:07.376Z,6.60
2023-02-14T15:00:09.437Z,6.50
2023-02-14T15:03:00.256Z,6.50
2023-02-14T15:05:50.274Z,6.40
2023-02-14T15:08:37.998Z,6.40
2023-02-14T15:11:47.660Z,6.30
2023-02-14T15:14:41.403Z,6.30
2023-02-14T15:17:32.917Z,6.20
2023-02-14T15:20:23.659Z,6.20
2023-02-14T15:23:19.684Z,6.20
2023-02-14T15:26:07.387Z,6.20
2023-02-14T15:29:01.225Z,6.10
2023-02-14T15:31:49.776Z,6.10
2023-02-14T15:34:37.853Z,6.10
2023-02-14T15:37:26.620Z,6.10
2023-02-14T15:40:18.785Z,6.00
2023-02-14T15:43:17.119Z,6.00
2023-02-14T15:46:20.797Z,5.90
2023-02-14T15:49:11.721Z,5.90
2023-02-14T15:52:01.604Z,5.80
2023-02-14T15:54:49.488Z,5.80
2023-02-14T15:57:38.141Z,5.70
2023-02-14T16:00:26.848Z,5.70
2023-02-14T16:03:21.008Z,5.60
2023-02-14T16:06:16.170Z,5.60
2023-02-14T16:09:04.684Z,5.50
2023-02-14T16:11:53.585Z,5.50
2023-02-14T16:14:42.968Z,5.50
2023-02-14T16:17:35.006Z,5.40
2023-02-14T16:20:30.833Z,5.40
2023-02-14T16:23:24.257Z,5.30
2023-02-14T16:26:12.564Z,5.30
2023-02-14T16:29:00.013Z,5.30
2023-02-14T16:32:12.101Z,5.20
2023-02-14T16:34:57.695Z,5.20
2023-02-14T16:37:48.403Z,5.20
2023-02-14T16:40:36.710Z,5.10
2023-02-14T16:43:24.499Z,5.20
2023-02-14T16:46:14.114Z,5.10
2023-02-14T16:49:01.860Z,5.20
2023-02-14T16:51:49.551Z,5.10
2023-02-14T16:54:38.744Z,5.10
2023-02-14T16:57:30.314Z,5.10
2023-02-14T17:00:18.721Z,5.00
2023-02-14T17:03:11.406Z,5.00
2023-02-14T17:06:01.283Z,4.90
2023-02-14T17:08:52.315Z,4.80
2023-02-14T17:11:45.966Z,4.80
2023-02-14T17:14:38.091Z,4.70
2023-02-14T17:17:26.450Z,4.70
2023-02-14T17:20:15.370Z,4.70
2023-02-14T17:23:03.613Z,4.60
2023-02-14T17:25:51.284Z,4.60
2023-02-14T17:28:40.275Z,4.60
2023-02-14T17:31:28.739Z,4.50
2023-02-14T17:34:16.346Z,4.40
2023-02-14T17:37:04.708Z,4.40
2023-02-14T17:39:54.141Z,4.30
2023-02-14T17:42:42.068Z,4.30
2023-02-14T17:45:31.211Z,4.20
2023-02-14T17:48:18.523Z,4.20
2023-02-14T17:51:07.533Z,4.30
2023-02-14T17:53:56.998Z,4.30
2023-02-14T17:56:46.228Z,4.20
2023-02-14T17:59:34.068Z,4.10
2023-02-14T18:02:23.124Z,4.00
2023-02-14T18:05:12.328Z,3.90
2023-02-14T18:07:59.893Z,3.90
2023-02-14T18:10:47.392Z,3.80
2023-02-14T18:13:35.359Z,3.70
2023-02-14T18:16:24.800Z,3.90
2023-02-14T18:19:15.999Z,3.90
2023-02-14T18:22:03.416Z,4.00
2023-02-14T18:24:51.090Z,3.90
2023-02-14T18:27:39.413Z,3.90
2023-02-14T18:30:27.044Z,3.80
2023-02-14T18:33:15.622Z,3.80
2023-02-14T18:36:05.144Z,3.70
2023-02-14T18:38:52.568Z,3.60
2023-02-14T18:41:40.313Z,3.50
2023-02-14T18:44:28.010Z,3.50
2023-02-14T18:47:15.245Z,3.40
2023-02-14T18:50:03.339Z,3.30
2023-02-14T18:52:52.576Z,3.20
2023-02-14T18:55:40.411Z,3.10
2023-02-14T18:58:27.610Z,3.00
2023-02-14T19:01:17.482Z,2.90
2023-02-14T19:04:08.685Z,2.80
2023-02-14T19:06:56.534Z,2.80
2023-02-14T19:09:46.109Z,2.70
2023-02-14T19:12:33.792Z,2.60
2023-02-14T19:15:21.394Z,2.60
2023-02-14T19:18:08.777Z,2.50
2023-02-14T19:20:56.132Z,2.40
2023-02-14T19:23:44.087Z,2.40
2023-02-14T19:26:35.072Z,2.30
2023-02-14T19:29:23.118Z,2.30
2023-02-14T19:32:10.830Z,2.20
2023-02-14T19:34:58.521Z,2.20
2023-02-14T19:37:45.795Z,2.20
2023-02-14T19:40:33.250Z,2.20
2023-02-14T19:43:22.289Z,2.10
2023-02-14T19:46:09.677Z,2.10
2023-02-14T19:48:57.337Z,2.10
2023-02-14T19:51:45.938Z,2.00
2023-02-14T19:54:33.674Z,2.00
2023-02-14T19:57:21.380Z,2.00
2023-02-14T20:00:12.187Z,2.00
2023-02-14T20:03:01.936Z,2.10
2023-02-14T20:05:49.759Z,2.10
2023-02-14T20:08:37.061Z,2.00
2023-02-14T20:11:31.447Z,2.00
2023-02-14T20:14:20.462Z,2.00
2023-02-14T20:17:09.385Z,2.00
2023-02-14T20:19:56.920Z,1.80
2023-02-14T20:22:44.623Z,1.80
2023-02-14T20:25:32.084Z,1.70
2023-02-14T20:28:19.393Z,1.50
2023-02-14T20:31:08.798Z,1.40
2023-02-14T20:33:58.191Z,1.30
2023-02-14T20:36:49.704Z,1.20
2023-02-14T20:39:37.774Z,1.00
2023-02-14T20:42:25.268Z,0.90
2023-02-14T20:45:12.608Z,0.80
2023-02-14T20:48:04.122Z,0.70
2023-02-14T20:50:52.889Z,0.50
2023-02-14T20:53:41.953Z,0.40
2023-02-14T20:56:29.851Z,0.40
2023-02-14T20:59:19.310Z,0.30
2023-02-14T21:02:07.512Z,0.20
2023-02-14T21:04:55.693Z,0.10
2023-02-14T21:07:44.975Z,0.00
2023-02-14T21:10:32.465Z,-0.10
2023-02-14T21:13:19.908Z,-0.20
2023-02-14T21:16:09.346Z,-0.20
2023-02-14T21:18:59.398Z,-0.30
2023-02-14T21:21:47.188Z,-0.30
2023-02-14T21:24:36.440Z,-0.30
2023-02-14T21:27:24.158Z,-0.40
2023-02-14T21:30:12.641Z,-0.50
2023-02-14T21:33:01.142Z,-0.50
2023-02-14T21:35:48.656Z,-0.60
2023-02-14T21:38:36.273Z,-0.70
2023-02-14T21:41:26.756Z,-0.70
2023-02-14T21:44:34.264Z,-0.80
2023-02-14T21:47:21.954Z,-0.80
2023-02-14T21:50:41.870Z,-0.90
2023-02-14T21:53:29.495Z,-0.90
2023-02-14T21:56:19.852Z,-1.00
2023-02-14T21:59:09.586Z,-1.00
2023-02-14T22:01:58.874Z,-1.10
2023-02-14T22:04:46.589Z,-1.20
2023-02-14T22:07:34.420Z,-1.20
2023-02-14T22:10:22.016Z,-1.30
2023-02-14T22:13:09.507Z,-1.30
2023-02-14T22:16:02.235Z,-1.40
2023-02-14T22:18:49.968Z,-1.50
2023-02-14T22:21:37.858Z,-1.50
2023-02-14T22:24:25.510Z,-1.60
2023-02-14T22:27:12.953Z,-1.60
2023-02-14T22:30:00.509Z,-1.60
2023-02-14T22:32:49.474Z,-1.70
2023-02-14T22:35:36.884Z,-1.70
2023-02-14T22:38:24.613Z,-1.80
2023-02-14T22:41:14.293Z,-1.80
2023-02-14T22:44:01.956Z,-1.90
2023-02-14T22:46:49.675Z,-1.90
2023-02-14T22:49:38.489Z,-1.90
2023-02-14T22:52:25.956Z,-2.00
2023-02-14T22:55:13.482Z,-2.00
2023-02-14T22:58:01.303Z,-2.00
2023-02-14T23:00:48.926Z,-2.00
2023-02-14T23:03:36.270Z,-2.00
2023-02-14T23:06:25.871Z,-2.00
2023-02-14T23:09:15.365Z,-2.00
2023-02-14T23:12:03.161Z,-1.90
2023-02-14T23:15:08.150Z,-1.90
2023-02-14T23:18:12.916Z,-1.90
2023-02-14T23:21:17.835Z,-1.80
2023-02-14T23:24:07.152Z,-1.80
2023-02-14T23:26:56.244Z,-1.80
2023-02-14T23:29:43.707Z,-1.70
2023-02-14T23:32:31.363Z,-1.70
2023-02-14T23:35:19.102Z,-1.70
2023-02-14T23:38:06.777Z,-1.80
2023-02-14T23:41:13.126Z,-1.70
2023-02-14T23:44:00.594Z,-1.60
2023-02-14T23:46:49.186Z,-1.50
2023-02-14T23:49:38.126Z,-1.50
2023-02-14T23:52:25.441Z,-1.50
2023-02-14T23:55:13.451Z,-1.50
2023-02-14T23:58:02.486Z,-1.60
